createdAt,value
2018-06-25T00:02:14.443Z,12.90
2018-06-25T00:04:42.857Z,17.17
2018-06-25T00:07:11.470Z,14.43
2018-06-25T00:09:39.932Z,17.53
2018-06-25T00:12:08.394Z,18.47
2018-06-25T00:14:37.077Z,24.67
2018-06-25T00:17:05.698Z,15.10
2018-06-25T00:19:34.146Z,20.60
2018-06-25T00:22:02.607Z,17.80
2018-06-25T00:24:31.039Z,11.60
2018-06-25T00:26:59.475Z,17.03
2018-06-25T00:29:27.907Z,19.10
2018-06-25T00:31:56.333Z,10.97
2018-06-25T00:34:24.869Z,15.43
2018-06-25T00:36:53.324Z,19.60
2018-06-25T00:39:21.855Z,23.73
2018-06-25T00:41:50.287Z,19.53
2018-06-25T00:44:18.776Z,16.80
2018-06-25T00:46:47.215Z,16.17
2018-06-25T00:49:15.675Z,18.47
2018-06-25T00:51:44.093Z,15.33
2018-06-25T00:54:12.516Z,20.03
2018-06-25T00:56:40.961Z,15.13
2018-06-25T00:59:20.526Z,16.50
2018-06-25T01:01:48.953Z,21.47
2018-06-25T01:04:17.344Z,18.47
2018-06-25T01:06:45.788Z,26.47
2018-06-25T01:09:14.519Z,15.37
2018-06-25T01:11:43.007Z,20.87
2018-06-25T01:14:11.452Z,26.40
2018-06-25T01:16:39.967Z,18.73
2018-06-25T01:19:08.425Z,18.27
2018-06-25T01:21:36.830Z,15.97
2018-06-25T01:24:05.293Z,22.17
2018-06-25T01:26:33.748Z,14.57
2018-06-25T01:29:02.167Z,25.00
2018-06-25T01:31:30.619Z,17.13
2018-06-25T01:33:59.259Z,20.20
2018-06-25T01:36:27.723Z,11.40
2018-06-25T01:38:56.340Z,18.90
2018-06-25T01:41:24.985Z,13.33
2018-06-25T01:43:53.640Z,17.00
2018-06-25T01:46:22.089Z,15.80
2018-06-25T01:48:50.563Z,14.63
2018-06-25T01:51:18.972Z,12.23
2018-06-25T01:53:47.375Z,15.50
2018-06-25T01:56:15.804Z,10.77
2018-06-25T01:58:44.296Z,19.87
2018-06-25T02:01:12.738Z,11.87
2018-06-25T02:03:41.189Z,10.47
2018-06-25T02:06:09.681Z,16.30
2018-06-25T02:08:38.103Z,10.17
2018-06-25T02:11:07.264Z,17.80
2018-06-25T02:15:04.786Z,11.67
2018-06-25T02:17:33.212Z,14.57
2018-06-25T02:20:01.622Z,13.17
2018-06-25T02:22:30.288Z,11.30
2018-06-25T02:24:58.743Z,17.00
2018-06-25T02:28:56.563Z,14.37
2018-06-25T02:31:25.147Z,13.90
2018-06-25T02:33:53.914Z,11.63
2018-06-25T02:36:22.388Z,14.43
2018-06-25T02:38:50.798Z,16.00
2018-06-25T02:41:19.386Z,15.60
2018-06-25T02:43:47.855Z,14.03
2018-06-25T02:46:16.880Z,13.33
2018-06-25T02:48:45.315Z,15.33
2018-06-25T02:51:13.988Z,11.10
2018-06-25T02:53:42.893Z,13.70
2018-06-25T02:56:11.491Z,9.77
2018-06-25T02:58:39.947Z,9.10
2018-06-25T03:01:08.618Z,7.67
2018-06-25T03:03:37.049Z,7.50
2018-06-25T03:06:05.492Z,13.30
2018-06-25T03:08:34.015Z,9.03
2018-06-25T03:11:03.034Z,10.83
2018-06-25T03:13:31.808Z,11.27
2018-06-25T03:16:00.244Z,7.07
2018-06-25T03:18:28.730Z,9.37
2018-06-25T03:20:57.199Z,10.10
2018-06-25T03:23:25.647Z,6.70
2018-06-25T03:25:54.103Z,5.63
2018-06-25T03:28:22.595Z,6.60
2018-06-25T03:30:51.034Z,7.00
2018-06-25T03:33:19.496Z,8.87
2018-06-25T03:35:47.947Z,13.63
2018-06-25T03:38:16.412Z,7.40
2018-06-25T03:40:44.901Z,6.30
2018-06-25T03:43:13.339Z,6.37
2018-06-25T03:45:41.780Z,6.93
2018-06-25T03:48:10.391Z,4.57
2018-06-25T03:50:38.890Z,7.00
2018-06-25T03:53:07.611Z,5.30
2018-06-25T03:55:36.089Z,5.90
2018-06-25T03:58:04.564Z,7.20
2018-06-25T04:00:33.118Z,5.87
2018-06-25T04:03:01.565Z,9.30
2018-06-25T04:05:29.994Z,5.27
2018-06-25T04:07:58.408Z,6.33
2018-06-25T04:11:56.516Z,6.53
2018-06-25T04:14:24.961Z,8.07
2018-06-25T04:16:53.390Z,6.67
2018-06-25T04:19:21.834Z,6.30
2018-06-25T04:21:50.268Z,7.03
2018-06-25T04:24:18.740Z,5.87
2018-06-25T04:26:47.149Z,5.27
2018-06-25T04:29:15.615Z,9.10
2018-06-25T04:31:44.095Z,5.77
2018-06-25T04:34:12.544Z,8.13
2018-06-25T04:36:41.383Z,6.57
2018-06-25T04:39:10.933Z,12.90
2018-06-25T04:41:39.360Z,12.53
2018-06-25T04:44:08.692Z,7.20
2018-06-25T04:46:37.092Z,7.60
2018-06-25T04:49:06.018Z,15.33
2018-06-25T04:51:34.727Z,9.97
2018-06-25T04:54:03.152Z,8.27
2018-06-25T04:56:31.627Z,9.27
2018-06-25T04:59:00.064Z,11.50
2018-06-25T05:01:28.564Z,10.40
2018-06-25T05:03:56.989Z,7.00
2018-06-25T05:06:25.456Z,6.60
2018-06-25T05:08:53.949Z,8.73
2018-06-25T05:11:22.680Z,6.83
2018-06-25T05:13:51.137Z,11.73
2018-06-25T05:16:19.555Z,8.20
2018-06-25T05:18:48.200Z,9.07
2018-06-25T05:21:16.616Z,6.67
2018-06-25T05:23:45.084Z,6.23
2018-06-25T05:26:13.779Z,11.30
2018-06-25T05:28:42.203Z,8.43
2018-06-25T05:31:10.746Z,7.47
2018-06-25T05:33:39.172Z,7.23
2018-06-25T05:36:08.243Z,6.47
2018-06-25T05:38:36.670Z,9.33
2018-06-25T05:41:05.410Z,7.10
2018-06-25T05:43:33.860Z,8.70
2018-06-25T05:46:02.339Z,7.93
2018-06-25T05:48:30.789Z,11.73
2018-06-25T05:50:59.227Z,13.30
2018-06-25T05:53:27.687Z,10.30
2018-06-25T05:55:56.121Z,10.73
2018-06-25T05:58:24.516Z,11.67
2018-06-25T06:00:52.986Z,11.83
2018-06-25T06:03:21.592Z,9.33
2018-06-25T06:05:50.037Z,11.80
2018-06-25T06:08:18.557Z,11.07
2018-06-25T06:10:47.029Z,9.90
2018-06-25T06:13:15.461Z,9.67
2018-06-25T06:15:43.856Z,9.97
2018-06-25T06:18:12.320Z,12.20
2018-06-25T06:20:40.776Z,15.73
2018-06-25T06:23:09.215Z,16.90
2018-06-25T06:25:37.639Z,14.37
2018-06-25T06:28:06.392Z,14.00
2018-06-25T06:30:34.859Z,14.27
2018-06-25T06:33:03.286Z,13.10
2018-06-25T06:35:31.731Z,14.23
2018-06-25T06:38:00.172Z,12.37
2018-06-25T06:40:29.318Z,12.30
2018-06-25T06:42:57.767Z,11.20
2018-06-25T06:45:28.798Z,13.03
2018-06-25T06:47:57.122Z,12.27
2018-06-25T06:50:25.675Z,14.00
2018-06-25T06:52:54.475Z,17.60
2018-06-25T06:55:23.072Z,20.60
2018-06-25T06:57:51.772Z,20.40
2018-06-25T07:00:20.187Z,21.70
2018-06-25T07:02:48.659Z,24.70
2018-06-25T07:05:17.129Z,23.00
2018-06-25T07:07:45.555Z,24.90
2018-06-25T07:10:14.019Z,20.70
2018-06-25T07:12:42.431Z,21.40
2018-06-25T07:15:10.832Z,23.50
2018-06-25T07:17:40.568Z,22.73
2018-06-25T07:20:09.335Z,25.63
2018-06-25T07:22:38.239Z,22.47
2018-06-25T07:25:07.007Z,21.17
2018-06-25T07:27:35.431Z,26.20
2018-06-25T07:30:03.959Z,25.87
2018-06-25T07:32:32.400Z,23.07
2018-06-25T07:35:00.859Z,27.77
2018-06-25T07:37:29.283Z,25.47
2018-06-25T07:39:57.732Z,21.47
2018-06-25T07:42:26.144Z,23.43
2018-06-25T07:44:54.666Z,25.87
2018-06-25T07:47:23.137Z,24.50
2018-06-25T07:49:51.583Z,26.60
2018-06-25T07:52:20.032Z,21.90
2018-06-25T07:54:48.452Z,22.40
2018-06-25T07:57:16.893Z,23.03
2018-06-25T07:59:45.379Z,23.20
2018-06-25T08:02:13.854Z,23.63
2018-06-25T08:04:42.305Z,28.20
2018-06-25T08:07:10.957Z,19.60
2018-06-25T08:09:39.347Z,19.33
2018-06-25T08:12:07.818Z,20.00
2018-06-25T08:14:36.215Z,20.60
2018-06-25T08:17:04.762Z,23.83
2018-06-25T08:19:33.241Z,15.03
2018-06-25T08:22:01.656Z,26.13
2018-06-25T08:24:30.569Z,16.93
2018-06-25T08:26:59.032Z,29.83
2018-06-25T08:29:27.443Z,15.23
2018-06-25T08:31:55.887Z,16.03
2018-06-25T08:34:24.510Z,16.90
2018-06-25T08:36:52.853Z,15.17
2018-06-25T08:39:21.525Z,19.13
2018-06-25T08:41:49.959Z,13.90
2018-06-25T08:44:18.397Z,12.20
2018-06-25T08:46:46.800Z,10.60
2018-06-25T08:49:15.353Z,12.13
2018-06-25T08:51:43.823Z,13.00
2018-06-25T08:54:12.211Z,15.10
2018-06-25T08:56:40.618Z,11.10
2018-06-25T08:59:09.090Z,10.83
2018-06-25T09:01:37.481Z,13.87
2018-06-25T09:04:06.846Z,15.10
2018-06-25T09:06:35.322Z,16.60
2018-06-25T09:09:05.031Z,13.77
2018-06-25T09:11:33.413Z,12.93
2018-06-25T09:14:01.859Z,10.20
2018-06-25T09:16:30.289Z,12.50
2018-06-25T09:18:58.751Z,11.30
2018-06-25T09:21:27.383Z,16.63
2018-06-25T09:23:55.816Z,13.57
2018-06-25T09:26:24.587Z,11.10
2018-06-25T09:28:52.996Z,8.50
2018-06-25T09:31:21.415Z,8.03
2018-06-25T09:33:49.850Z,7.90
2018-06-25T09:36:18.300Z,5.33
2018-06-25T09:38:47.006Z,5.40
2018-06-25T09:41:15.572Z,7.40
2018-06-25T09:43:43.875Z,5.67
2018-06-25T09:46:12.427Z,7.80
2018-06-25T09:48:40.895Z,8.40
2018-06-25T09:51:09.291Z,7.30
2018-06-25T09:53:37.742Z,5.20
2018-06-25T09:56:06.188Z,6.53
2018-06-25T09:58:34.663Z,8.97
2018-06-25T10:01:08.283Z,8.30
2018-06-25T10:03:36.971Z,8.70
2018-06-25T10:06:05.680Z,6.57
2018-06-25T10:08:34.098Z,6.97
2018-06-25T10:11:02.469Z,9.60
2018-06-25T10:13:30.933Z,6.63
2018-06-25T10:15:59.362Z,5.73
2018-06-25T10:18:27.783Z,8.00
2018-06-25T10:20:56.224Z,8.40
2018-06-25T10:23:25.171Z,4.60
2018-06-25T10:25:53.840Z,3.53
2018-06-25T10:28:22.747Z,4.93
2018-06-25T10:30:51.516Z,4.07
2018-06-25T10:33:19.955Z,4.60
2018-06-25T10:35:48.599Z,5.93
2018-06-25T10:38:17.004Z,4.13
2018-06-25T10:40:45.504Z,6.90
2018-06-25T10:43:13.932Z,6.23
2018-06-25T10:45:42.486Z,4.10
2018-06-25T10:48:10.942Z,5.73
2018-06-25T10:50:39.343Z,3.20
2018-06-25T10:53:07.759Z,2.90
2018-06-25T10:55:36.181Z,2.73
2018-06-25T10:58:04.608Z,2.20
2018-06-25T11:00:33.032Z,5.00
2018-06-25T11:03:01.491Z,3.70
2018-06-25T11:05:29.907Z,7.80
2018-06-25T11:07:58.563Z,4.00
2018-06-25T11:10:27.012Z,7.00
2018-06-25T11:12:55.796Z,2.43
2018-06-25T11:15:24.370Z,4.37
2018-06-25T11:17:52.773Z,5.40
2018-06-25T11:20:21.201Z,2.90
2018-06-25T11:22:49.627Z,3.27
2018-06-25T11:25:18.159Z,4.07
2018-06-25T11:27:46.891Z,8.37
2018-06-25T11:30:15.330Z,3.67
2018-06-25T11:32:43.892Z,3.90
2018-06-25T11:35:12.311Z,2.93
2018-06-25T11:37:40.774Z,7.20
2018-06-25T11:40:09.166Z,3.80
2018-06-25T11:42:37.605Z,2.73
2018-06-25T11:45:06.216Z,4.63
2018-06-25T11:47:34.627Z,3.10
2018-06-25T11:50:03.093Z,4.57
2018-06-25T11:52:31.516Z,3.43
2018-06-25T11:55:00.021Z,6.20
2018-06-25T11:57:28.426Z,4.67
2018-06-25T11:59:57.061Z,2.80
2018-06-25T12:02:25.772Z,4.43
2018-06-25T12:04:54.167Z,3.03
2018-06-25T12:07:22.632Z,5.37
2018-06-25T12:09:51.019Z,4.23
2018-06-25T12:12:19.525Z,3.90
2018-06-25T12:14:48.240Z,8.40
2018-06-25T12:17:16.663Z,3.13
2018-06-25T12:19:45.077Z,4.07
2018-06-25T12:22:13.496Z,4.77
2018-06-25T12:24:41.887Z,3.20
2018-06-25T12:27:10.364Z,3.10
2018-06-25T12:29:38.806Z,4.30
2018-06-25T12:32:07.834Z,2.40
2018-06-25T12:34:36.182Z,5.33
2018-06-25T12:37:04.636Z,4.53
2018-06-25T12:39:33.128Z,3.53
2018-06-25T12:42:01.732Z,4.53
2018-06-25T12:44:30.160Z,3.20
2018-06-25T12:46:58.596Z,3.80
2018-06-25T12:49:27.111Z,7.67
2018-06-25T12:51:55.779Z,3.10
2018-06-25T12:54:24.191Z,2.47
2018-06-25T12:56:52.670Z,2.40
2018-06-25T12:59:21.227Z,5.60
2018-06-25T13:01:49.707Z,3.33
2018-06-25T13:04:18.092Z,3.50
2018-06-25T13:06:46.592Z,3.70
2018-06-25T13:09:15.036Z,2.80
2018-06-25T13:11:43.794Z,4.40
2018-06-25T13:14:12.255Z,2.40
2018-06-25T13:16:40.755Z,8.00
2018-06-25T13:19:09.205Z,2.03
2018-06-25T13:21:37.618Z,2.10
2018-06-25T13:24:06.051Z,3.10
2018-06-25T13:26:34.475Z,1.67
2018-06-25T13:29:03.073Z,1.70
2018-06-25T13:31:31.550Z,3.00
2018-06-25T13:33:59.943Z,2.60
2018-06-25T13:36:28.354Z,1.60
2018-06-25T13:38:56.811Z,2.10
2018-06-25T13:41:25.256Z,2.40
2018-06-25T13:43:54.134Z,1.90
2018-06-25T13:46:22.591Z,2.70
2018-06-25T13:48:51.580Z,2.93
2018-06-25T13:51:20.047Z,6.40
2018-06-25T13:53:48.464Z,2.80
2018-06-25T13:56:17.116Z,8.33
2018-06-25T13:58:45.551Z,2.80
2018-06-25T14:01:13.959Z,3.50
2018-06-25T14:03:42.429Z,4.73
2018-06-25T14:06:10.851Z,2.13
2018-06-25T14:08:39.563Z,3.17
2018-06-25T14:11:07.995Z,2.93
2018-06-25T14:13:36.511Z,3.73
2018-06-25T14:16:05.054Z,2.00
2018-06-25T14:18:33.808Z,4.40
2018-06-25T14:21:02.283Z,4.03
2018-06-25T14:23:30.679Z,9.27
2018-06-25T14:26:04.997Z,3.63
2018-06-25T14:28:34.996Z,2.50
2018-06-25T14:31:08.830Z,2.90
2018-06-25T14:33:42.132Z,2.97
2018-06-25T14:36:11.150Z,5.50
2018-06-25T14:38:39.603Z,5.97
2018-06-25T14:41:08.244Z,4.40
2018-06-25T14:43:36.716Z,4.27
2018-06-25T14:46:05.648Z,4.30
2018-06-25T14:48:34.591Z,3.77
2018-06-25T14:51:03.753Z,4.37
2018-06-25T14:53:32.176Z,3.30
2018-06-25T14:56:00.588Z,3.77
2018-06-25T14:58:29.318Z,2.50
2018-06-25T15:00:57.772Z,3.93
2018-06-25T15:03:26.423Z,3.50
2018-06-25T15:05:54.902Z,4.50
2018-06-25T15:08:23.363Z,5.20
2018-06-25T15:10:51.778Z,3.47
2018-06-25T15:13:20.229Z,3.97
2018-06-25T15:15:48.639Z,3.57
2018-06-25T15:18:17.108Z,2.90
2018-06-25T15:20:45.740Z,3.10
2018-06-25T15:23:14.163Z,3.60
2018-06-25T15:25:42.659Z,2.37
2018-06-25T15:28:11.101Z,2.83
2018-06-25T15:30:39.560Z,3.17
2018-06-25T15:33:07.999Z,2.37
2018-06-25T15:35:36.407Z,2.60
2018-06-25T15:38:05.011Z,3.03
2018-06-25T15:40:33.708Z,3.03
2018-06-25T15:43:02.132Z,2.10
2018-06-25T15:45:30.560Z,3.00
2018-06-25T15:47:59.029Z,2.63
2018-06-25T15:50:27.552Z,2.77
2018-06-25T15:52:55.997Z,3.83
2018-06-25T15:55:24.434Z,4.53
2018-06-25T15:57:52.862Z,5.03
2018-06-25T16:00:21.284Z,6.40
2018-06-25T16:02:49.724Z,2.73
2018-06-25T16:05:18.631Z,2.53
2018-06-25T16:07:47.045Z,3.40
2018-06-25T16:10:15.473Z,2.87
2018-06-25T16:12:44.192Z,2.53
2018-06-25T16:15:12.642Z,4.30
2018-06-25T16:17:41.084Z,4.83
2018-06-25T16:20:09.560Z,2.67
2018-06-25T16:22:38.317Z,5.40
2018-06-25T16:25:07.352Z,2.30
2018-06-25T16:27:35.859Z,2.00
2018-06-25T16:30:04.974Z,2.33
2018-06-25T16:32:33.741Z,2.03
2018-06-25T16:35:02.144Z,2.50
2018-06-25T16:37:30.799Z,3.10
2018-06-25T16:39:59.259Z,4.30
2018-06-25T16:42:27.898Z,4.10
2018-06-25T16:44:56.327Z,3.00
2018-06-25T16:47:24.788Z,2.93
2018-06-25T16:49:53.868Z,2.50
2018-06-25T16:52:22.723Z,3.40
2018-06-25T16:54:51.473Z,3.83
2018-06-25T16:57:20.177Z,8.70
2018-06-25T16:59:48.569Z,3.43
2018-06-25T17:02:17.279Z,3.87
2018-06-25T17:04:46.025Z,4.13
2018-06-25T17:07:14.461Z,2.80
2018-06-25T17:09:43.504Z,2.70
2018-06-25T17:12:11.986Z,3.87
2018-06-25T17:14:40.667Z,3.20
2018-06-25T17:17:09.271Z,4.30
2018-06-25T17:19:37.865Z,3.17
2018-06-25T17:22:06.644Z,5.83
2018-06-25T17:24:35.090Z,2.93
2018-06-25T17:27:03.715Z,3.03
2018-06-25T17:29:32.163Z,13.23
2018-06-25T17:32:00.859Z,4.07
2018-06-25T17:41:13.453Z,6.27
2018-06-25T17:43:42.083Z,3.27
2018-06-25T17:46:10.627Z,3.77
2018-06-25T17:48:39.141Z,11.33
2018-06-25T17:51:07.547Z,4.13
2018-06-25T17:53:36.247Z,6.87
2018-06-25T17:56:05.192Z,3.93
2018-06-25T17:58:33.635Z,4.20
2018-06-25T18:01:02.415Z,3.80
2018-06-25T18:03:30.833Z,4.00
2018-06-25T18:05:59.271Z,3.97
2018-06-25T18:08:27.699Z,3.77
2018-06-25T18:10:56.431Z,6.10
2018-06-25T18:13:24.855Z,5.23
2018-06-25T18:15:53.232Z,8.80
2018-06-25T18:18:21.679Z,4.57
2018-06-25T18:20:50.221Z,5.50
2018-06-25T18:23:18.595Z,4.87
2018-06-25T18:25:47.382Z,10.87
2018-06-25T18:28:16.068Z,5.73
2018-06-25T18:30:44.715Z,7.60
2018-06-25T18:33:13.138Z,15.63
2018-06-25T18:35:41.586Z,11.27
2018-06-25T18:38:10.147Z,8.97
2018-06-25T18:40:38.751Z,8.33
2018-06-25T18:43:07.263Z,6.10
2018-06-25T18:45:35.684Z,4.80
2018-06-25T18:48:04.177Z,5.97
2018-06-25T18:50:32.703Z,17.73
2018-06-25T18:53:01.371Z,6.10
2018-06-25T18:55:29.811Z,7.93
2018-06-25T18:57:58.230Z,6.10
2018-06-25T19:00:26.638Z,5.00
2018-06-25T19:02:55.085Z,5.03
2018-06-25T19:05:23.669Z,5.60
2018-06-25T19:07:52.239Z,6.13
2018-06-25T19:10:20.680Z,6.20
2018-06-25T19:12:49.124Z,5.23
2018-06-25T19:15:17.533Z,5.80
2018-06-25T19:17:46.297Z,6.37
2018-06-25T19:20:15.008Z,5.67
2018-06-25T19:22:43.426Z,6.63
2018-06-25T19:25:12.027Z,5.33
2018-06-25T19:27:40.562Z,6.30
2018-06-25T19:30:09.109Z,11.27
2018-06-25T19:32:37.559Z,9.50
2018-06-25T19:35:06.121Z,6.03
2018-06-25T19:37:34.587Z,5.43
2018-06-25T19:40:03.051Z,6.00
2018-06-25T19:42:31.511Z,7.20
2018-06-25T19:44:59.932Z,6.10
2018-06-25T19:47:28.476Z,5.77
2018-06-25T19:49:56.914Z,7.03
2018-06-25T19:52:25.800Z,6.93
2018-06-25T19:54:54.262Z,8.73
2018-06-25T19:57:22.744Z,6.13
2018-06-25T19:59:51.224Z,5.17
2018-06-25T20:02:19.625Z,7.90
2018-06-25T20:04:48.155Z,5.97
2018-06-25T20:07:16.608Z,6.73
2018-06-25T20:09:45.038Z,5.83
2018-06-25T20:12:13.460Z,6.30
2018-06-25T20:14:41.957Z,7.50
2018-06-25T20:17:10.355Z,8.63
2018-06-25T20:19:39.286Z,5.70
2018-06-25T20:22:07.733Z,7.90
2018-06-25T20:24:36.429Z,7.20
2018-06-25T20:27:05.110Z,20.00
2018-06-25T20:29:33.558Z,11.07
2018-06-25T20:32:02.191Z,8.60
2018-06-25T20:34:30.887Z,7.43
2018-06-25T20:36:59.524Z,10.10
2018-06-25T20:39:28.288Z,16.27
2018-06-25T20:41:56.783Z,7.90
2018-06-25T20:44:25.314Z,6.43
2018-06-25T20:46:53.954Z,6.67
2018-06-25T20:49:22.594Z,8.57
2018-06-25T20:51:51.584Z,7.77
2018-06-25T20:54:20.487Z,8.93
2018-06-25T20:56:49.103Z,12.67
2018-06-25T20:59:17.548Z,9.83
2018-06-25T21:01:46.470Z,8.50
2018-06-25T21:04:16.331Z,8.40
2018-06-25T21:06:44.727Z,7.23
2018-06-25T21:09:13.951Z,9.37
2018-06-25T21:11:43.204Z,8.90
2018-06-25T21:14:11.635Z,9.90
2018-06-25T21:16:40.368Z,7.80
2018-06-25T21:20:38.194Z,8.20
2018-06-25T21:23:07.100Z,11.50
2018-06-25T21:25:35.501Z,8.93
2018-06-25T21:28:04.239Z,13.77
2018-06-25T21:30:33.176Z,9.00
2018-06-25T21:33:02.230Z,9.43
2018-06-25T21:35:30.942Z,8.80
2018-06-25T21:37:59.612Z,10.03
2018-06-25T21:40:28.091Z,9.30
2018-06-25T21:42:56.508Z,11.87
2018-06-25T21:45:25.014Z,10.87
2018-06-25T21:47:53.527Z,9.57
2018-06-25T21:50:21.954Z,10.77
2018-06-25T21:52:50.772Z,10.37
2018-06-25T21:55:19.315Z,9.97
2018-06-25T21:57:47.768Z,10.47
2018-06-25T22:00:16.254Z,9.67
2018-06-25T22:02:44.964Z,10.20
2018-06-25T22:05:13.900Z,10.70
2018-06-25T22:07:42.669Z,10.77
2018-06-25T22:10:11.088Z,10.20
2018-06-25T22:12:39.843Z,20.77
2018-06-25T22:15:08.974Z,10.73
2018-06-25T22:17:37.431Z,11.33
2018-06-25T22:20:06.347Z,16.03
2018-06-25T22:29:19.311Z,12.03
2018-06-25T22:31:47.760Z,11.10
2018-06-25T22:34:16.204Z,11.57
2018-06-25T22:36:45.051Z,11.90
2018-06-25T22:39:13.502Z,10.50
2018-06-25T22:41:42.562Z,12.03
2018-06-25T22:44:13.672Z,11.03
2018-06-25T22:46:43.185Z,9.20
2018-06-25T22:49:11.905Z,11.70
2018-06-25T22:51:40.682Z,8.43
2018-06-25T22:55:38.343Z,9.00
2018-06-25T22:58:06.784Z,11.40
2018-06-25T23:00:35.240Z,13.63
2018-06-25T23:03:03.896Z,14.10
2018-06-25T23:05:32.341Z,8.40
2018-06-25T23:08:00.831Z,13.13
2018-06-25T23:10:29.258Z,9.00
2018-06-25T23:12:57.741Z,8.77
2018-06-25T23:15:26.182Z,10.30
2018-06-25T23:17:54.599Z,9.53
2018-06-25T23:20:23.042Z,9.13
2018-06-25T23:22:55.395Z,12.23
2018-06-25T23:25:24.452Z,10.43
2018-06-25T23:27:53.164Z,9.63
2018-06-25T23:30:22.071Z,12.63
2018-06-25T23:32:50.530Z,8.80
2018-06-25T23:35:19.522Z,9.70
2018-06-25T23:37:48.316Z,9.50
2018-06-25T23:40:16.770Z,14.13
2018-06-25T23:42:45.206Z,10.37
2018-06-25T23:45:13.791Z,11.03
2018-06-25T23:47:42.223Z,10.67
2018-06-25T23:50:10.668Z,11.80
2018-06-25T23:52:39.151Z,11.30
2018-06-25T23:55:07.881Z,12.33
2018-06-25T23:57:36.354Z,12.40
